sensor_id;sensor_type;location;lat;lon;timestamp;temperature;humidity
76211;DHT22;65003;49.518;11.280;2023-07-13T00:02:05;22.20;66.40
76211;DHT22;65003;49.518;11.280;2023-07-13T00:04:32;22.20;66.40
76211;DHT22;65003;49.518;11.280;2023-07-13T00:06:58;22.20;66.40
76211;DHT22;65003;49.518;11.280;2023-07-13T00:09:25;22.20;66.60
76211;DHT22;65003;49.518;11.280;2023-07-13T00:11:54;22.20;66.70
76211;DHT22;65003;49.518;11.280;2023-07-13T00:14:18;21.20;65.60
76211;DHT22;65003;49.518;11.280;2023-07-13T00:16:44;22.20;66.60
76211;DHT22;65003;49.518;11.280;2023-07-13T00:19:11;22.10;66.70
76211;DHT22;65003;49.518;11.280;2023-07-13T00:21:39;22.10;66.80
76211;DHT22;65003;49.518;11.280;2023-07-13T00:24:05;22.20;66.70
76211;DHT22;65003;49.518;11.280;2023-07-13T00:26:32;22.10;66.80
76211;DHT22;65003;49.518;11.280;2023-07-13T00:28:58;22.10;67.30
76211;DHT22;65003;49.518;11.280;2023-07-13T00:31:25;22.00;67.50
76211;DHT22;65003;49.518;11.280;2023-07-13T00:33:51;22.10;67.30
76211;DHT22;65003;49.518;11.280;2023-07-13T00:36:19;22.10;67.20
76211;DHT22;65003;49.518;11.280;2023-07-13T00:38:45;22.00;67.40
76211;DHT22;65003;49.518;11.280;2023-07-13T00:41:11;22.00;67.20
76211;DHT22;65003;49.518;11.280;2023-07-13T00:43:38;22.00;67.70
76211;DHT22;65003;49.518;11.280;2023-07-13T00:46:10;21.90;67.50
76211;DHT22;65003;49.518;11.280;2023-07-13T00:48:35;21.90;67.50
76211;DHT22;65003;49.518;11.280;2023-07-13T00:51:01;21.90;67.70
76211;DHT22;65003;49.518;11.280;2023-07-13T00:53:28;21.90;67.70
76211;DHT22;65003;49.518;11.280;2023-07-13T00:55:55;21.80;67.60
76211;DHT22;65003;49.518;11.280;2023-07-13T00:58:21;21.80;67.80
76211;DHT22;65003;49.518;11.280;2023-07-13T01:00:47;21.80;68.00
76211;DHT22;65003;49.518;11.280;2023-07-13T01:03:14;21.80;68.10
76211;DHT22;65003;49.518;11.280;2023-07-13T01:05:41;21.80;67.80
76211;DHT22;65003;49.518;11.280;2023-07-13T01:08:07;21.80;71.80
76211;DHT22;65003;49.518;11.280;2023-07-13T01:10:34;21.80;87.40
76211;DHT22;65003;49.518;11.280;2023-07-13T01:13:01;21.80;84.30
76211;DHT22;65003;49.518;11.280;2023-07-13T01:15:35;21.80;82.90
76211;DHT22;65003;49.518;11.280;2023-07-13T01:18:01;21.70;79.40
76211;DHT22;65003;49.518;11.280;2023-07-13T01:20:27;21.70;82.70
76211;DHT22;65003;49.518;11.280;2023-07-13T01:22:54;21.70;79.10
76211;DHT22;65003;49.518;11.280;2023-07-13T01:25:20;21.70;76.20
76211;DHT22;65003;49.518;11.280;2023-07-13T01:27:47;21.60;77.80
76211;DHT22;65003;49.518;11.280;2023-07-13T01:30:14;21.50;81.00
76211;DHT22;65003;49.518;11.280;2023-07-13T01:32:40;21.40;69.30
76211;DHT22;65003;49.518;11.280;2023-07-13T01:35:07;21.30;69.40
76211;DHT22;65003;49.518;11.280;2023-07-13T01:37:33;21.30;69.90
76211;DHT22;65003;49.518;11.280;2023-07-13T01:40:00;21.20;70.00
76211;DHT22;65003;49.518;11.280;2023-07-13T01:42:28;21.10;70.00
76211;DHT22;65003;49.518;11.280;2023-07-13T01:44:53;21.10;70.40
76211;DHT22;65003;49.518;11.280;2023-07-13T01:47:22;21.00;71.30
76211;DHT22;65003;49.518;11.280;2023-07-13T01:49:46;20.90;71.10
76211;DHT22;65003;49.518;11.280;2023-07-13T01:52:13;20.90;71.20
76211;DHT22;65003;49.518;11.280;2023-07-13T01:54:39;20.80;71.30
76211;DHT22;65003;49.518;11.280;2023-07-13T01:57:06;20.80;71.50
76211;DHT22;65003;49.518;11.280;2023-07-13T01:59:33;20.80;77.70
76211;DHT22;65003;49.518;11.280;2023-07-13T02:01:59;20.80;71.40
76211;DHT22;65003;49.518;11.280;2023-07-13T02:04:26;20.90;71.40
76211;DHT22;65003;49.518;11.280;2023-07-13T02:06:53;20.80;71.30
76211;DHT22;65003;49.518;11.280;2023-07-13T02:09:19;20.80;71.70
76211;DHT22;65003;49.518;11.280;2023-07-13T02:11:46;20.70;72.60
76211;DHT22;65003;49.518;11.280;2023-07-13T02:14:12;20.60;71.50
76211;DHT22;65003;49.518;11.280;2023-07-13T02:16:39;20.60;71.30
76211;DHT22;65003;49.518;11.280;2023-07-13T02:19:06;20.50;71.60
76211;DHT22;65003;49.518;11.280;2023-07-13T02:21:32;20.50;71.60
76211;DHT22;65003;49.518;11.280;2023-07-13T02:23:59;20.50;71.70
76211;DHT22;65003;49.518;11.280;2023-07-13T02:26:26;20.50;71.30
76211;DHT22;65003;49.518;11.280;2023-07-13T02:28:52;20.60;71.10
76211;DHT22;65003;49.518;11.280;2023-07-13T02:31:19;20.70;71.10
76211;DHT22;65003;49.518;11.280;2023-07-13T02:33:45;20.70;71.30
76211;DHT22;65003;49.518;11.280;2023-07-13T02:36:12;20.70;82.20
76211;DHT22;65003;49.518;11.280;2023-07-13T02:38:38;20.60;71.10
76211;DHT22;65003;49.518;11.280;2023-07-13T02:41:06;20.40;71.60
76211;DHT22;65003;49.518;11.280;2023-07-13T02:43:32;20.30;71.60
76211;DHT22;65003;49.518;11.280;2023-07-13T02:45:59;20.30;72.00
76211;DHT22;65003;49.518;11.280;2023-07-13T02:48:26;20.30;71.70
76211;DHT22;65003;49.518;11.280;2023-07-13T02:50:52;20.30;71.90
76211;DHT22;65003;49.518;11.280;2023-07-13T02:53:19;20.20;71.90
76211;DHT22;65003;49.518;11.280;2023-07-13T02:55:45;20.10;72.30
76211;DHT22;65003;49.518;11.280;2023-07-13T02:58:12;20.20;72.40
76211;DHT22;65003;49.518;11.280;2023-07-13T03:00:38;20.10;72.40
76211;DHT22;65003;49.518;11.280;2023-07-13T03:03:05;20.10;72.30
76211;DHT22;65003;49.518;11.280;2023-07-13T03:07:59;20.00;72.10
76211;DHT22;65003;49.518;11.280;2023-07-13T03:10:25;20.00;72.20
76211;DHT22;65003;49.518;11.280;2023-07-13T03:12:52;20.00;72.60
76211;DHT22;65003;49.518;11.280;2023-07-13T03:15:18;20.00;72.60
76211;DHT22;65003;49.518;11.280;2023-07-13T03:17:45;20.00;72.20
76211;DHT22;65003;49.518;11.280;2023-07-13T03:20:11;20.10;71.90
76211;DHT22;65003;49.518;11.280;2023-07-13T03:22:38;20.10;72.00
76211;DHT22;65003;49.518;11.280;2023-07-13T03:25:05;20.10;72.00
76211;DHT22;65003;49.518;11.280;2023-07-13T03:27:32;20.10;72.00
76211;DHT22;65003;49.518;11.280;2023-07-13T03:29:58;20.10;72.00
76211;DHT22;65003;49.518;11.280;2023-07-13T03:32:25;20.00;72.80
76211;DHT22;65003;49.518;11.280;2023-07-13T03:34:51;19.80;73.30
76211;DHT22;65003;49.518;11.280;2023-07-13T03:37:18;19.70;73.90
76211;DHT22;65003;49.518;11.280;2023-07-13T03:39:45;19.50;74.50
76211;DHT22;65003;49.518;11.280;2023-07-13T03:42:11;19.60;74.40
76211;DHT22;65003;49.518;11.280;2023-07-13T03:44:39;19.80;73.60
76211;DHT22;65003;49.518;11.280;2023-07-13T03:47:04;19.80;73.30
76211;DHT22;65003;49.518;11.280;2023-07-13T03:49:31;19.90;73.30
76211;DHT22;65003;49.518;11.280;2023-07-13T03:51:58;19.80;73.40
76211;DHT22;65003;49.518;11.280;2023-07-13T03:54:24;19.80;73.30
76211;DHT22;65003;49.518;11.280;2023-07-13T03:56:51;19.80;73.60
76211;DHT22;65003;49.518;11.280;2023-07-13T03:59:17;19.80;73.60
76211;DHT22;65003;49.518;11.280;2023-07-13T04:01:44;20.00;73.10
76211;DHT22;65003;49.518;11.280;2023-07-13T04:04:11;19.90;73.20
76211;DHT22;65003;49.518;11.280;2023-07-13T04:06:37;19.90;72.80
76211;DHT22;65003;49.518;11.280;2023-07-13T04:09:04;19.70;73.70
76211;DHT22;65003;49.518;11.280;2023-07-13T04:11:31;19.70;73.50
76211;DHT22;65003;49.518;11.280;2023-07-13T04:13:58;19.50;73.80
76211;DHT22;65003;49.518;11.280;2023-07-13T04:16:24;19.50;73.80
76211;DHT22;65003;49.518;11.280;2023-07-13T04:18:51;19.50;73.90
76211;DHT22;65003;49.518;11.280;2023-07-13T04:21:18;19.60;73.60
76211;DHT22;65003;49.518;11.280;2023-07-13T04:23:44;19.90;72.70
76211;DHT22;65003;49.518;11.280;2023-07-13T04:26:11;20.10;72.40
76211;DHT22;65003;49.518;11.280;2023-07-13T04:28:38;20.20;71.40
76211;DHT22;65003;49.518;11.280;2023-07-13T04:31:05;20.20;71.30
76211;DHT22;65003;49.518;11.280;2023-07-13T04:33:32;20.30;71.10
76211;DHT22;65003;49.518;11.280;2023-07-13T04:35:59;20.40;70.50
76211;DHT22;65003;49.518;11.280;2023-07-13T04:38:27;20.30;70.90
76211;DHT22;65003;49.518;11.280;2023-07-13T04:40:57;20.30;70.80
76211;DHT22;65003;49.518;11.280;2023-07-13T04:43:23;20.30;70.20
76211;DHT22;65003;49.518;11.280;2023-07-13T04:45:50;20.40;69.90
76211;DHT22;65003;49.518;11.280;2023-07-13T04:48:15;20.40;69.90
76211;DHT22;65003;49.518;11.280;2023-07-13T04:50:42;20.50;69.70
76211;DHT22;65003;49.518;11.280;2023-07-13T04:53:09;20.30;69.70
76211;DHT22;65003;49.518;11.280;2023-07-13T04:55:36;20.30;70.10
76211;DHT22;65003;49.518;11.280;2023-07-13T04:58:02;20.30;70.40
76211;DHT22;65003;49.518;11.280;2023-07-13T05:00:29;20.30;70.40
76211;DHT22;65003;49.518;11.280;2023-07-13T05:02:55;20.20;71.40
76211;DHT22;65003;49.518;11.280;2023-07-13T05:05:22;20.20;71.60
76211;DHT22;65003;49.518;11.280;2023-07-13T05:07:48;20.00;71.70
76211;DHT22;65003;49.518;11.280;2023-07-13T05:10:15;20.00;72.80
76211;DHT22;65003;49.518;11.280;2023-07-13T05:12:42;20.00;73.00
76211;DHT22;65003;49.518;11.280;2023-07-13T05:15:09;20.10;71.60
76211;DHT22;65003;49.518;11.280;2023-07-13T05:17:35;20.30;71.90
76211;DHT22;65003;49.518;11.280;2023-07-13T05:20:02;20.50;71.00
76211;DHT22;65003;49.518;11.280;2023-07-13T05:22:29;20.60;70.70
76211;DHT22;65003;49.518;11.280;2023-07-13T05:24:55;20.80;69.90
76211;DHT22;65003;49.518;11.280;2023-07-13T05:27:22;20.90;69.00
76211;DHT22;65003;49.518;11.280;2023-07-13T05:29:49;21.00;68.60
76211;DHT22;65003;49.518;11.280;2023-07-13T05:32:17;21.20;68.40
76211;DHT22;65003;49.518;11.280;2023-07-13T05:34:42;21.40;67.00
76211;DHT22;65003;49.518;11.280;2023-07-13T05:37:08;21.50;66.60
76211;DHT22;65003;49.518;11.280;2023-07-13T05:39:35;21.60;66.20
76211;DHT22;65003;49.518;11.280;2023-07-13T05:42:02;21.70;65.80
76211;DHT22;65003;49.518;11.280;2023-07-13T05:44:29;21.80;65.30
76211;DHT22;65003;49.518;11.280;2023-07-13T05:46:55;22.00;64.70
76211;DHT22;65003;49.518;11.280;2023-07-13T05:49:22;22.30;63.90
76211;DHT22;65003;49.518;11.280;2023-07-13T05:51:48;22.70;68.20
76211;DHT22;65003;49.518;11.280;2023-07-13T05:54:15;23.20;60.40
76211;DHT22;65003;49.518;11.280;2023-07-13T05:56:42;23.60;59.60
76211;DHT22;65003;49.518;11.280;2023-07-13T05:59:08;24.00;57.80
76211;DHT22;65003;49.518;11.280;2023-07-13T06:01:35;24.30;57.20
76211;DHT22;65003;49.518;11.280;2023-07-13T06:04:01;24.50;56.90
76211;DHT22;65003;49.518;11.280;2023-07-13T06:06:28;24.60;56.20
76211;DHT22;65003;49.518;11.280;2023-07-13T06:08:55;24.80;55.00
76211;DHT22;65003;49.518;11.280;2023-07-13T06:11:23;24.80;55.10
76211;DHT22;65003;49.518;11.280;2023-07-13T06:13:48;24.40;54.60
76211;DHT22;65003;49.518;11.280;2023-07-13T06:16:15;24.00;55.80
76211;DHT22;65003;49.518;11.280;2023-07-13T06:18:41;24.00;56.40
76211;DHT22;65003;49.518;11.280;2023-07-13T06:21:09;24.20;55.80
76211;DHT22;65003;49.518;11.280;2023-07-13T06:23:36;24.40;55.60
76211;DHT22;65003;49.518;11.280;2023-07-13T06:26:03;24.90;54.10
76211;DHT22;65003;49.518;11.280;2023-07-13T06:28:29;25.50;53.00
76211;DHT22;65003;49.518;11.280;2023-07-13T06:30:56;25.70;51.80
76211;DHT22;65003;49.518;11.280;2023-07-13T06:33:22;25.30;52.00
76211;DHT22;65003;49.518;11.280;2023-07-13T06:35:49;24.80;53.10
76211;DHT22;65003;49.518;11.280;2023-07-13T06:38:15;24.70;53.90
76211;DHT22;65003;49.518;11.280;2023-07-13T06:40:42;24.90;53.00
76211;DHT22;65003;49.518;11.280;2023-07-13T06:43:09;25.10;53.00
76211;DHT22;65003;49.518;11.280;2023-07-13T06:45:44;25.50;51.60
76211;DHT22;65003;49.518;11.280;2023-07-13T06:48:12;26.20;50.10
76211;DHT22;65003;49.518;11.280;2023-07-13T06:50:39;27.80;46.90
76211;DHT22;65003;49.518;11.280;2023-07-13T06:53:05;29.30;43.20
76211;DHT22;65003;49.518;11.280;2023-07-13T06:55:32;29.60;43.60
76211;DHT22;65003;49.518;11.280;2023-07-13T06:57:59;30.10;41.30
76211;DHT22;65003;49.518;11.280;2023-07-13T07:00:26;30.40;41.00
76211;DHT22;65003;49.518;11.280;2023-07-13T07:02:52;30.10;40.30
76211;DHT22;65003;49.518;11.280;2023-07-13T07:05:19;28.10;42.90
76211;DHT22;65003;49.518;11.280;2023-07-13T07:07:45;27.90;44.00
76211;DHT22;65003;49.518;11.280;2023-07-13T07:10:12;27.00;45.90
76211;DHT22;65003;49.518;11.280;2023-07-13T07:12:39;26.10;47.60
76211;DHT22;65003;49.518;11.280;2023-07-13T07:15:05;26.60;47.80
76211;DHT22;65003;49.518;11.280;2023-07-13T07:17:32;26.90;46.70
76211;DHT22;65003;49.518;11.280;2023-07-13T07:19:59;26.30;47.40
76211;DHT22;65003;49.518;11.280;2023-07-13T07:22:26;26.00;49.10
76211;DHT22;65003;49.518;11.280;2023-07-13T07:24:53;27.80;45.10
76211;DHT22;65003;49.518;11.280;2023-07-13T07:27:19;27.90;44.90
76211;DHT22;65003;49.518;11.280;2023-07-13T07:29:46;28.00;44.70
76211;DHT22;65003;49.518;11.280;2023-07-13T07:32:12;28.00;44.40
76211;DHT22;65003;49.518;11.280;2023-07-13T07:34:39;28.70;43.60
76211;DHT22;65003;49.518;11.280;2023-07-13T07:37:05;30.20;40.90
76211;DHT22;65003;49.518;11.280;2023-07-13T07:39:32;31.20;39.40
76211;DHT22;65003;49.518;11.280;2023-07-13T07:41:59;31.50;37.50
76211;DHT22;65003;49.518;11.280;2023-07-13T07:44:25;31.50;37.00
76211;DHT22;65003;49.518;11.280;2023-07-13T07:49:19;32.30;36.20
76211;DHT22;65003;49.518;11.280;2023-07-13T07:51:46;32.30;38.50
76211;DHT22;65003;49.518;11.280;2023-07-13T07:54:13;33.00;45.90
76211;DHT22;65003;49.518;11.280;2023-07-13T07:56:39;33.20;35.40
76211;DHT22;65003;49.518;11.280;2023-07-13T07:59:06;32.20;34.00
76211;DHT22;65003;49.518;11.280;2023-07-13T08:01:32;31.80;35.00
76211;DHT22;65003;49.518;11.280;2023-07-13T08:03:59;28.60;39.50
76211;DHT22;65003;49.518;11.280;2023-07-13T08:06:26;28.50;40.20
76211;DHT22;65003;49.518;11.280;2023-07-13T08:08:52;28.30;41.80
76211;DHT22;65003;49.518;11.280;2023-07-13T08:11:20;29.70;39.80
76211;DHT22;65003;49.518;11.280;2023-07-13T08:13:46;30.90;37.80
76211;DHT22;65003;49.518;11.280;2023-07-13T08:16:12;30.90;37.20
76211;DHT22;65003;49.518;11.280;2023-07-13T08:18:39;31.10;37.30
76211;DHT22;65003;49.518;11.280;2023-07-13T08:21:06;32.60;35.90
76211;DHT22;65003;49.518;11.280;2023-07-13T08:23:32;34.30;33.20
76211;DHT22;65003;49.518;11.280;2023-07-13T08:25:59;34.60;31.00
76211;DHT22;65003;49.518;11.280;2023-07-13T08:28:25;35.50;30.00
76211;DHT22;65003;49.518;11.280;2023-07-13T08:30:52;35.60;29.80
76211;DHT22;65003;49.518;11.280;2023-07-13T08:33:19;35.60;29.50
76211;DHT22;65003;49.518;11.280;2023-07-13T08:35:46;35.60;29.20
76211;DHT22;65003;49.518;11.280;2023-07-13T08:38:13;36.00;28.80
76211;DHT22;65003;49.518;11.280;2023-07-13T08:40:39;36.60;27.50
76211;DHT22;65003;49.518;11.280;2023-07-13T08:43:06;36.50;28.00
76211;DHT22;65003;49.518;11.280;2023-07-13T08:45:43;35.90;27.20
76211;DHT22;65003;49.518;11.280;2023-07-13T08:48:14;35.60;27.60
76211;DHT22;65003;49.518;11.280;2023-07-13T08:50:42;35.10;26.40
76211;DHT22;65003;49.518;11.280;2023-07-13T08:53:05;34.50;26.40
76211;DHT22;65003;49.518;11.280;2023-07-13T08:55:33;34.30;26.30
76211;DHT22;65003;49.518;11.280;2023-07-13T08:58:00;34.20;26.60
76211;DHT22;65003;49.518;11.280;2023-07-13T09:00:30;34.20;25.90
76211;DHT22;65003;49.518;11.280;2023-07-13T09:02:56;34.30;27.00
76211;DHT22;65003;49.518;11.280;2023-07-13T09:05:26;34.20;26.50
76211;DHT22;65003;49.518;11.280;2023-07-13T09:08:12;34.20;26.40
76211;DHT22;65003;49.518;11.280;2023-07-13T09:10:43;34.00;26.10
76211;DHT22;65003;49.518;11.280;2023-07-13T09:13:20;34.10;26.70
76211;DHT22;65003;49.518;11.280;2023-07-13T09:15:44;33.60;27.70
76211;DHT22;65003;49.518;11.280;2023-07-13T09:18:45;33.40;27.70
76211;DHT22;65003;49.518;11.280;2023-07-13T09:20:56;33.40;28.70
76211;DHT22;65003;49.518;11.280;2023-07-13T09:23:22;33.40;27.60
76211;DHT22;65003;49.518;11.280;2023-07-13T09:25:48;33.10;26.90
76211;DHT22;65003;49.518;11.280;2023-07-13T09:28:17;32.80;26.80
76211;DHT22;65003;49.518;11.280;2023-07-13T09:33:26;33.60;26.50
76211;DHT22;65003;49.518;11.280;2023-07-13T09:35:53;33.30;27.20
76211;DHT22;65003;49.518;11.280;2023-07-13T09:38:19;33.00;26.80
76211;DHT22;65003;49.518;11.280;2023-07-13T09:40:53;33.10;27.50
76211;DHT22;65003;49.518;11.280;2023-07-13T09:43:16;33.80;27.80
76211;DHT22;65003;49.518;11.280;2023-07-13T09:45:45;34.10;26.50
76211;DHT22;65003;49.518;11.280;2023-07-13T09:48:12;34.10;26.00
76211;DHT22;65003;49.518;11.280;2023-07-13T09:50:37;33.70;26.70
76211;DHT22;65003;49.518;11.280;2023-07-13T09:53:04;33.50;26.90
76211;DHT22;65003;49.518;11.280;2023-07-13T09:55:33;33.30;27.30
76211;DHT22;65003;49.518;11.280;2023-07-13T09:58:02;32.90;27.20
76211;DHT22;65003;49.518;11.280;2023-07-13T10:00:26;32.60;29.50
76211;DHT22;65003;49.518;11.280;2023-07-13T10:03:03;32.10;27.10
76211;DHT22;65003;49.518;11.280;2023-07-13T10:05:36;31.90;28.30
76211;DHT22;65003;49.518;11.280;2023-07-13T10:07:55;31.60;28.70
76211;DHT22;65003;49.518;11.280;2023-07-13T10:10:22;31.70;29.20
76211;DHT22;65003;49.518;11.280;2023-07-13T10:12:49;31.90;28.50
76211;DHT22;65003;49.518;11.280;2023-07-13T10:15:16;32.10;28.40
76211;DHT22;65003;49.518;11.280;2023-07-13T10:17:42;32.00;27.90
76211;DHT22;65003;49.518;11.280;2023-07-13T10:20:08;30.80;27.70
76211;DHT22;65003;49.518;11.280;2023-07-13T10:22:50;30.60;28.50
76211;DHT22;65003;49.518;11.280;2023-07-13T10:25:16;30.60;29.20
76211;DHT22;65003;49.518;11.280;2023-07-13T10:27:41;30.70;28.50
76211;DHT22;65003;49.518;11.280;2023-07-13T10:30:18;30.90;28.40
76211;DHT22;65003;49.518;11.280;2023-07-13T10:32:43;30.60;28.60
76211;DHT22;65003;49.518;11.280;2023-07-13T10:35:11;30.60;28.40
76211;DHT22;65003;49.518;11.280;2023-07-13T10:37:44;30.60;29.20
76211;DHT22;65003;49.518;11.280;2023-07-13T10:40:12;30.50;29.10
76211;DHT22;65003;49.518;11.280;2023-07-13T10:42:37;30.50;29.60
76211;DHT22;65003;49.518;11.280;2023-07-13T10:45:02;30.30;29.40
76211;DHT22;65003;49.518;11.280;2023-07-13T10:47:28;30.20;29.30
76211;DHT22;65003;49.518;11.280;2023-07-13T10:49:56;30.30;29.60
76211;DHT22;65003;49.518;11.280;2023-07-13T10:52:41;29.90;29.50
76211;DHT22;65003;49.518;11.280;2023-07-13T10:55:29;29.70;30.00
76211;DHT22;65003;49.518;11.280;2023-07-13T10:57:41;29.80;30.00
76211;DHT22;65003;49.518;11.280;2023-07-13T11:00:14;29.80;30.00
76211;DHT22;65003;49.518;11.280;2023-07-13T11:02:39;29.60;30.70
76211;DHT22;65003;49.518;11.280;2023-07-13T11:05:33;29.50;31.80
76211;DHT22;65003;49.518;11.280;2023-07-13T11:08:04;29.50;30.40
76211;DHT22;65003;49.518;11.280;2023-07-13T11:13:29;29.50;30.80
76211;DHT22;65003;49.518;11.280;2023-07-13T11:15:43;29.10;31.20
76211;DHT22;65003;49.518;11.280;2023-07-13T11:18:03;28.70;31.20
76211;DHT22;65003;49.518;11.280;2023-07-13T11:20:33;28.20;31.30
76211;DHT22;65003;49.518;11.280;2023-07-13T11:23:08;28.30;32.70
76211;DHT22;65003;49.518;11.280;2023-07-13T11:25:34;28.60;33.50
76211;DHT22;65003;49.518;11.280;2023-07-13T11:28:15;28.80;33.30
76211;DHT22;65003;49.518;11.280;2023-07-13T11:30:47;29.00;32.40
76211;DHT22;65003;49.518;11.280;2023-07-13T11:33:20;29.50;31.40
76211;DHT22;65003;49.518;11.280;2023-07-13T11:36:07;29.70;31.10
76211;DHT22;65003;49.518;11.280;2023-07-13T11:38:35;29.80;30.50
76211;DHT22;65003;49.518;11.280;2023-07-13T11:41:02;29.60;30.60
76211;DHT22;65003;49.518;11.280;2023-07-13T11:43:27;29.60;31.90
76211;DHT22;65003;49.518;11.280;2023-07-13T11:45:54;29.60;31.80
76211;DHT22;65003;49.518;11.280;2023-07-13T11:51:01;29.10;31.30
76211;DHT22;65003;49.518;11.280;2023-07-13T11:53:27;28.70;32.70
76211;DHT22;65003;49.518;11.280;2023-07-13T11:55:52;28.20;32.90
76211;DHT22;65003;49.518;11.280;2023-07-13T11:58:21;28.00;33.70
76211;DHT22;65003;49.518;11.280;2023-07-13T12:00:45;28.40;34.70
76211;DHT22;65003;49.518;11.280;2023-07-13T12:03:19;28.90;34.10
76211;DHT22;65003;49.518;11.280;2023-07-13T12:05:44;29.20;32.30
76211;DHT22;65003;49.518;11.280;2023-07-13T12:08:09;29.20;31.80
76211;DHT22;65003;49.518;11.280;2023-07-13T12:10:35;28.80;32.20
76211;DHT22;65003;49.518;11.280;2023-07-13T12:13:03;28.50;32.70
76211;DHT22;65003;49.518;11.280;2023-07-13T12:15:46;28.50;33.50
76211;DHT22;65003;49.518;11.280;2023-07-13T12:18:13;28.70;34.30
76211;DHT22;65003;49.518;11.280;2023-07-13T12:20:39;28.90;32.00
76211;DHT22;65003;49.518;11.280;2023-07-13T12:23:22;28.90;32.30
76211;DHT22;65003;49.518;11.280;2023-07-13T12:25:48;28.70;32.40
76211;DHT22;65003;49.518;11.280;2023-07-13T12:28:22;28.60;34.10
76211;DHT22;65003;49.518;11.280;2023-07-13T12:30:49;28.40;33.20
76211;DHT22;65003;49.518;11.280;2023-07-13T12:33:15;28.30;34.70
76211;DHT22;65003;49.518;11.280;2023-07-13T12:35:45;28.30;34.20
76211;DHT22;65003;49.518;11.280;2023-07-13T12:38:10;28.30;34.30
76211;DHT22;65003;49.518;11.280;2023-07-13T12:40:36;28.40;34.80
76211;DHT22;65003;49.518;11.280;2023-07-13T12:43:03;28.60;34.70
76211;DHT22;65003;49.518;11.280;2023-07-13T12:45:30;28.70;34.20
76211;DHT22;65003;49.518;11.280;2023-07-13T12:47:58;28.60;34.00
76211;DHT22;65003;49.518;11.280;2023-07-13T12:50:30;28.50;32.70
76211;DHT22;65003;49.518;11.280;2023-07-13T12:52:56;28.40;33.70
76211;DHT22;65003;49.518;11.280;2023-07-13T12:55:22;28.30;33.70
76211;DHT22;65003;49.518;11.280;2023-07-13T12:57:51;28.40;33.80
76211;DHT22;65003;49.518;11.280;2023-07-13T13:00:24;28.40;33.20
76211;DHT22;65003;49.518;11.280;2023-07-13T13:02:49;28.30;33.10
76211;DHT22;65003;49.518;11.280;2023-07-13T13:05:15;28.40;33.80
76211;DHT22;65003;49.518;11.280;2023-07-13T13:07:42;28.30;33.90
76211;DHT22;65003;49.518;11.280;2023-07-13T13:10:12;28.20;34.60
76211;DHT22;65003;49.518;11.280;2023-07-13T13:12:38;28.10;34.70
76211;DHT22;65003;49.518;11.280;2023-07-13T13:15:06;27.90;35.60
76211;DHT22;65003;49.518;11.280;2023-07-13T13:17:33;27.90;35.00
76211;DHT22;65003;49.518;11.280;2023-07-13T13:20:00;28.00;34.80
76211;DHT22;65003;49.518;11.280;2023-07-13T13:22:26;28.00;35.00
76211;DHT22;65003;49.518;11.280;2023-07-13T13:24:53;27.80;34.70
76211;DHT22;65003;49.518;11.280;2023-07-13T13:27:20;27.80;35.10
76211;DHT22;65003;49.518;11.280;2023-07-13T13:29:46;28.10;37.70
76211;DHT22;65003;49.518;11.280;2023-07-13T13:32:13;28.30;35.40
76211;DHT22;65003;49.518;11.280;2023-07-13T13:34:39;28.10;35.00
76211;DHT22;65003;49.518;11.280;2023-07-13T13:37:20;28.10;35.10
76211;DHT22;65003;49.518;11.280;2023-07-13T13:39:46;28.10;36.70
76211;DHT22;65003;49.518;11.280;2023-07-13T13:42:12;28.30;36.50
76211;DHT22;65003;49.518;11.280;2023-07-13T13:44:39;28.50;34.90
76211;DHT22;65003;49.518;11.280;2023-07-13T13:47:07;28.50;34.50
76211;DHT22;65003;49.518;11.280;2023-07-13T13:49:32;28.50;33.60
76211;DHT22;65003;49.518;11.280;2023-07-13T13:51:58;28.30;33.30
76211;DHT22;65003;49.518;11.280;2023-07-13T13:54:25;28.30;34.70
76211;DHT22;65003;49.518;11.280;2023-07-13T13:56:52;28.30;34.70
76211;DHT22;65003;49.518;11.280;2023-07-13T13:59:18;28.40;35.50
76211;DHT22;65003;49.518;11.280;2023-07-13T14:01:45;28.30;34.00
76211;DHT22;65003;49.518;11.280;2023-07-13T14:04:15;28.10;34.00
76211;DHT22;65003;49.518;11.280;2023-07-13T14:06:41;28.10;35.40
76211;DHT22;65003;49.518;11.280;2023-07-13T14:09:12;28.00;36.30
76211;DHT22;65003;49.518;11.280;2023-07-13T14:11:38;28.00;36.40
76211;DHT22;65003;49.518;11.280;2023-07-13T14:14:04;27.80;36.00
76211;DHT22;65003;49.518;11.280;2023-07-13T14:16:31;27.40;36.10
76211;DHT22;65003;49.518;11.280;2023-07-13T14:18:57;27.10;36.80
76211;DHT22;65003;49.518;11.280;2023-07-13T14:21:24;27.10;36.60
76211;DHT22;65003;49.518;11.280;2023-07-13T14:23:51;27.20;36.80
76211;DHT22;65003;49.518;11.280;2023-07-13T14:26:18;27.40;37.80
76211;DHT22;65003;49.518;11.280;2023-07-13T14:28:47;27.50;36.40
76211;DHT22;65003;49.518;11.280;2023-07-13T14:31:13;27.40;36.90
76211;DHT22;65003;49.518;11.280;2023-07-13T14:33:39;27.30;36.90
76211;DHT22;65003;49.518;11.280;2023-07-13T14:36:16;27.20;37.70
76211;DHT22;65003;49.518;11.280;2023-07-13T14:38:38;27.20;36.80
76211;DHT22;65003;49.518;11.280;2023-07-13T14:41:07;27.20;36.30
76211;DHT22;65003;49.518;11.280;2023-07-13T14:43:32;27.30;36.70
76211;DHT22;65003;49.518;11.280;2023-07-13T14:45:58;27.40;36.30
76211;DHT22;65003;49.518;11.280;2023-07-13T14:48:25;27.50;36.50
76211;DHT22;65003;49.518;11.280;2023-07-13T14:50:54;27.50;35.60
76211;DHT22;65003;49.518;11.280;2023-07-13T14:53:20;27.50;35.90
76211;DHT22;65003;49.518;11.280;2023-07-13T14:55:47;27.50;36.80
76211;DHT22;65003;49.518;11.280;2023-07-13T14:58:13;27.60;35.80
76211;DHT22;65003;49.518;11.280;2023-07-13T15:00:40;27.40;35.70
76211;DHT22;65003;49.518;11.280;2023-07-13T15:03:08;27.10;36.40
76211;DHT22;65003;49.518;11.280;2023-07-13T15:05:33;26.80;37.00
76211;DHT22;65003;49.518;11.280;2023-07-13T15:08:01;26.60;37.00
76211;DHT22;65003;49.518;11.280;2023-07-13T15:10:28;26.60;36.60
76211;DHT22;65003;49.518;11.280;2023-07-13T15:12:57;26.80;36.90
76211;DHT22;65003;49.518;11.280;2023-07-13T15:15:20;26.80;36.70
76211;DHT22;65003;49.518;11.280;2023-07-13T15:17:47;26.90;37.10
76211;DHT22;65003;49.518;11.280;2023-07-13T15:20:19;26.90;36.40
76211;DHT22;65003;49.518;11.280;2023-07-13T15:22:45;26.90;37.60
76211;DHT22;65003;49.518;11.280;2023-07-13T15:25:15;26.80;37.10
76211;DHT22;65003;49.518;11.280;2023-07-13T15:27:39;26.70;37.20
76211;DHT22;65003;49.518;11.280;2023-07-13T15:30:06;26.40;46.30